Latest Weather Observations for Tuggeranong

IDN60901

Issued at 8:35 pm EDT Saturday 25 October 2014 (issued every 10 minutes, with the page automatically refreshed every 10 minutes)

About weather observations | Map of Canberra area stations | Latest observations for Canberra area | Other Formats
Station Details ID: 070339 Name: TUGGERANONG (ISABELLA PLAINS) AWS Lat: -35.42 Lon: 149.09 Height: 586.7 m
Data from the previous 72 hours. | See also: Recent months at Tuggeranong
Date/Time
EDT
Tmp

°C
App
Tmp
°C
Dew
Point
°C
Rel
Hum
%
Delta-T

°C
Wind Press
QNH
hPa
Press
MSL
hPa
Rain
since
9 am
mm
Dir
 
Spd
km/h
Gust
km/h
Spd
kts
Gust
kts
25/08:30pm 20.4 20.9 11.6 57 5.0 E 0 0 0 0 1014.7 1013.8 0.2
25/08:00pm 20.7 19.6 10.8 53 5.6 ESE 7 9 4 5 1014.5 1013.6 0.2
25/07:30pm 22.5 21.7 10.9 48 6.6 SE 6 7 3 4 1013.9 1013.0 0.2
25/07:00pm 25.1 23.6 8.6 35 9.1 W 6 7 3 4 1014.1 1013.2 0.2
25/06:30pm 27.4 25.6 9.3 32 10.3 W 9 13 5 7 1013.7 1012.9 0.2
25/06:00pm 26.9 23.9 7.9 30 10.5 W 13 19 7 10 1014.0 1013.1 0.2
25/05:30pm 28.0 25.0 7.8 28 11.2 WNW 13 20 7 11 1014.2 1013.3 0.2
25/05:00pm 27.4 24.2 8.3 30 10.6 WNW 15 22 8 12 1014.4 1013.5 0.2
25/04:30pm 28.5 24.5 8.2 28 11.4 WNW 19 30 10 16 1014.8 1014.0 0.2
25/04:00pm 27.1 23.4 9.5 33 10.0 WNW 19 30 10 16 1014.7 1013.8 0.2
25/03:41pm 27.5 21.8 8.4 30 10.7 W 28 39 15 21 1014.6 1013.7 0.0
25/03:30pm 27.9 24.4 8.7 30 10.8 W 17 20 9 11 1014.5 1013.6 0.0
25/03:00pm 29.8 25.6 8.2 26 12.2 WNW 20 28 11 15 1014.3 1013.4 0.0
25/02:30pm 30.7 27.5 8.4 25 12.6 WNW 15 22 8 12 1014.6 1013.7 0.0
25/02:00pm 30.3 27.3 9.2 27 12.1 NW 15 22 8 12 1015.1 1014.3 0.0
25/01:30pm 29.4 27.1 10.5 31 11.0 N 13 19 7 10 1015.4 1014.6 0.0
25/01:00pm 28.8 26.5 10.5 32 10.6 NNW 13 19 7 10 1015.9 1015.0 0.0
25/12:30pm 28.6 26.0 9.3 30 11.0 NNW 13 20 7 11 1016.4 1015.6 0.0
25/12:00pm 28.0 26.2 10.7 34 10.0 NNW 11 19 6 10 1016.9 1016.1 0.0
25/11:30am 26.8 24.2 9.2 33 9.9 N 13 20 7 11 1017.6 1016.7 0.0
25/11:00am 25.7 23.4 9.1 35 9.3 NW 11 15 6 8 1017.8 1017.0 0.0
25/10:30am 24.2 22.6 10.1 41 8.0 N 9 13 5 7 1018.0 1017.2 0.0
25/10:00am 22.6 22.6 12.3 52 6.0 NNW 4 9 2 5 1018.0 1017.2 0.0
25/09:30am 20.0 19.4 10.4 54 5.3 WNW 4 7 2 4 1018.3 1017.5 0.0
25/09:00am 18.1 17.5 10.5 61 4.2 W 4 7 2 4 1018.3 1017.5 0.0
25/08:30am 16.0 16.1 10.1 68 3.2 CALM 0 0 0 0 1018.4 1017.6 0.0
25/08:00am 14.1 14.2 10.3 78 2.0 CALM 0 2 0 1 1018.2 1017.4 0.0
25/07:30am 12.6 12.7 10.0 84 1.4 CALM 0 0 0 0 1017.9 1017.1 0.0
25/07:00am 10.3 10.2 9.5 95 0.4 CALM 0 0 0 0 1017.7 1016.9 0.0
25/06:30am 9.0 8.8 8.9 99 0.1 CALM 0 0 0 0 1017.6 1016.7 0.0
25/06:00am 8.6 8.2 8.2 97 0.2 ENE 0 0 0 0 1017.2 1016.4 0.0
25/05:30am 8.9 8.6 8.8 99 0.1 CALM 0 0 0 0 1017.0 1016.2 0.0
25/05:00am 8.9 8.5 8.3 96 0.3 CALM 0 0 0 0 1016.6 1015.8 0.0
25/04:30am 9.4 9.2 8.9 97 0.3 CALM 0 0 0 0 1016.2 1015.4 0.0
25/04:00am 10.1 9.2 9.3 95 0.4 E 4 7 2 4 1016.1 1015.2 0.0
25/03:30am 10.3 10.3 9.7 96 0.3 CALM 0 0 0 0 1015.7 1014.8 0.0
25/03:00am 11.1 10.1 10.2 94 0.5 E 6 9 3 5 1015.1 1014.3 0.0
25/02:30am 10.4 10.1 8.8 90 0.8 CALM 0 0 0 0 1015.0 1014.2 0.0
25/02:00am 12.3 12.0 11.4 94 0.5 ENE 4 7 2 4 1014.9 1014.1 0.0
25/01:30am 12.3 11.7 10.4 88 1.0 NNW 4 9 2 5 1015.0 1014.2 0.0
25/01:00am 12.7 12.3 9.9 83 1.5 NNE 2 9 1 5 1014.9 1014.1 0.0
25/12:30am 13.5 13.4 10.9 84 1.4 WNW 2 11 1 6 1015.0 1014.2 0.0
25/12:00am 14.6 14.5 10.8 78 2.1 ENE 2 7 1 4 1015.0 1014.2 0.0
 
Date/Time
EDT
Tmp

°C
App
Tmp
°C
Dew
Point
°C
Rel
Hum
%
Delta-T

°C
Wind Press
QNH
hPa
Press
MSL
hPa
Rain
since
9 am
mm
Dir
 
Spd
km/h
Gust
km/h
Spd
kts
Gust
kts
24/11:30pm 16.1 15.4 11.5 74 2.6 ENE 6 9 3 5 1015.1 1014.3 0.0
24/11:00pm 17.9 17.2 11.9 68 3.4 SE 7 9 4 5 1015.0 1014.2 0.0
24/10:30pm 18.2 17.5 12.0 67 3.5 E 7 9 4 5 1014.9 1014.1 0.0
24/10:00pm 18.7 17.5 12.9 69 3.4 E 11 13 6 7 1014.7 1013.8 0.0
24/09:30pm 19.4 19.1 12.7 65 3.9 E 6 7 3 4 1014.6 1013.7 0.0
24/09:00pm 21.2 20.9 13.4 61 4.6 E 7 9 4 5 1014.4 1013.5 0.0
24/08:30pm 21.5 22.4 12.9 58 5.0 CALM 0 0 0 0 1014.0 1013.1 0.0
24/08:00pm 22.1 22.9 12.4 54 5.6 CALM 0 0 0 0 1013.9 1013.0 0.0
24/07:30pm 24.3 25.0 12.3 47 7.0 CALM 0 0 0 0 1013.5 1012.7 0.0
24/07:00pm 24.9 23.9 10.4 40 8.3 W 6 20 3 11 1013.2 1012.3 0.0
24/06:30pm 25.2 26.3 13.4 48 7.1 CALM 0 0 0 0 1012.9 1012.0 0.0
24/06:00pm 26.4 25.6 11.7 40 8.6 W 7 15 4 8 1012.8 1011.9 0.0
24/05:30pm 27.5 26.3 11.5 37 9.4 WNW 9 15 5 8 1012.6 1011.7 0.0
24/05:00pm 28.1 26.0 11.2 35 9.9 WNW 13 19 7 10 1012.7 1011.8 0.0
24/04:30pm 27.6 25.8 12.0 38 9.2 NNE 13 19 7 10 1012.8 1011.9 0.0
24/04:00pm 27.8 26.0 12.2 38 9.3 NNW 13 19 7 10 1013.1 1012.2 0.0
24/03:30pm 27.8 25.8 12.6 39 9.1 NNW 15 24 8 13 1013.5 1012.7 0.0
24/03:00pm 27.2 26.1 13.2 42 8.4 N 11 20 6 11 1014.1 1013.2 0.0
24/02:30pm 25.7 24.2 13.2 46 7.5 N 13 19 7 10 1014.8 1014.0 0.0
24/02:00pm 25.4 23.8 12.9 45 7.4 N 13 20 7 11 1015.3 1014.5 0.0
24/01:30pm 24.9 22.8 12.5 46 7.3 NNW 15 24 8 13 1016.0 1015.1 0.0
24/01:00pm 24.3 22.9 12.3 47 7.0 WNW 11 17 6 9 1016.4 1015.6 0.0
24/12:30pm 24.6 23.9 13.2 49 6.8 WSW 9 15 5 8 1016.9 1016.1 0.0
24/12:00pm 22.8 22.0 11.8 50 6.4 WSW 7 13 4 7 1017.5 1016.6 0.0
24/11:30am 22.3 21.2 12.0 52 6.0 WSW 9 13 5 7 1018.0 1017.2 0.0
24/11:00am 21.9 20.9 12.2 54 5.6 W 9 13 5 7 1018.6 1017.8 0.0
24/10:30am 21.1 20.4 11.4 54 5.5 W 6 11 3 6 1018.8 1018.0 0.0
24/10:00am 20.5 19.6 11.2 55 5.3 SSW 7 9 4 5 1019.4 1018.6 0.0
24/09:30am 19.8 19.8 11.0 57 4.9 ESE 2 9 1 5 1019.8 1019.0 0.0
24/09:00am 18.7 18.6 9.5 55 5.0 CALM 0 0 0 0 1020.0 1019.2 2.2
24/08:30am 16.8 17.1 12.3 75 2.5 ESE 2 6 1 3 1020.1 1019.3 2.2
24/08:00am 14.3 14.2 12.0 86 1.3 WSW 4 7 2 4 1020.5 1019.7 2.2
24/07:30am 12.7 12.2 12.5 99 0.1 E 7 11 4 6 1020.0 1019.2 2.2
24/07:00am 11.4 11.1 11.4 100 0.0 NE 4 7 2 4 1020.5 1019.7 2.2
24/06:30am 10.8 10.3 10.6 99 0.1 E 4 11 2 6 1020.2 1019.4 2.2
24/06:00am 10.8 10.6 10.6 99 0.1 E 2 7 1 4 1020.3 1019.5 2.0
24/05:30am 11.3 11.7 11.1 99 0.1 CALM 0 6 0 3 1020.1 1019.3 2.0
24/05:00am 11.7 11.4 11.4 98 0.2 ENE 4 7 2 4 1019.9 1019.1 2.0
24/04:30am 12.0 12.4 11.4 96 0.3 CALM 0 6 0 3 1019.9 1019.1 2.0
24/04:00am 12.5 12.5 11.1 91 0.8 SE 2 7 1 4 1019.9 1019.1 2.0
24/03:30am 13.5 13.7 11.7 89 1.0 S 2 7 1 4 1019.8 1019.0 2.0
24/03:00am 14.2 13.0 11.5 84 1.5 NNW 9 13 5 7 1020.3 1019.5 2.0
24/02:30am 14.1 13.3 13.0 93 0.6 NNE 9 13 5 7 1020.9 1020.2 1.8
24/02:00am 14.4 14.1 12.6 89 1.0 W 6 11 3 6 1021.8 1021.0 1.8
24/01:30am 14.1 13.3 12.8 92 0.7 SW 9 15 5 8 1021.9 1021.1 1.8
24/01:00am 14.5 12.4 12.5 88 1.1 ENE 15 22 8 12 1020.9 1020.2 1.8
24/12:30am 14.5 12.8 12.5 88 1.1 SSW 13 28 7 15 1022.5 1021.8 1.6
24/12:00am 13.4 13.3 12.0 91 0.8 SW 4 11 2 6 1021.7 1020.9 1.6
 
Date/Time
EDT
Tmp

°C
App
Tmp
°C
Dew
Point
°C
Rel
Hum
%
Delta-T

°C
Wind Press
QNH
hPa
Press
MSL
hPa
Rain
since
9 am
mm
Dir
 
Spd
km/h
Gust
km/h
Spd
kts
Gust
kts
23/11:30pm 14.1 13.5 11.6 85 1.4 S 6 11 3 6 1021.5 1020.7 1.6
23/11:00pm 14.1 14.5 11.4 84 1.5 CALM 0 0 0 0 1021.8 1021.0 1.6
23/10:30pm 15.7 14.5 11.5 76 2.3 SSW 9 13 5 7 1022.2 1021.5 1.6
23/10:00pm 17.3 16.2 11.8 70 3.1 E 9 15 5 8 1022.5 1021.8 1.6
23/09:30pm 17.1 16.1 12.2 73 2.8 ESE 9 15 5 8 1022.1 1021.4 1.6
23/09:00pm 15.9 16.0 12.6 81 1.9 NW 4 15 2 8 1021.5 1020.7 1.6
23/08:30pm 16.2 15.9 11.6 74 2.6 N 4 7 2 4 1020.6 1019.9 1.6
23/08:00pm 18.2 17.5 11.3 64 3.9 S 6 9 3 5 1020.0 1019.2 1.6
23/07:30pm 19.2 17.8 11.0 59 4.6 SE 9 19 5 10 1019.8 1019.0 1.6
23/07:00pm 18.1 19.2 14.6 80 2.1 SSE 2 7 1 4 1019.0 1018.2 1.6
23/06:30pm 17.3 17.4 13.8 80 2.0 NNW 6 9 3 5 1018.6 1017.8 1.6
23/06:00pm 18.5 15.4 11.6 64 3.9 WSW 19 30 10 16 1018.6 1017.8 1.2
23/05:30pm 20.9 16.9 10.4 51 5.9 NE 22 32 12 17 1017.5 1016.6 0.6
23/05:00pm 20.1 18.5 11.6 58 4.8 NW 11 17 6 9 1018.6 1017.8 0.6
23/04:30pm 19.4 17.0 11.4 60 4.5 E 15 28 8 15 1018.0 1017.2 0.6
23/04:00pm 20.6 16.0 9.5 49 6.1 ESE 24 30 13 16 1018.4 1017.6 0.4
23/03:30pm 23.0 20.2 10.1 44 7.2 SSE 15 20 8 11 1018.4 1017.6 0.4
23/03:00pm 21.2 21.7 12.9 59 4.8 N 2 7 1 4 1018.4 1017.6 0.4
23/02:30pm 19.9 16.5 11.1 57 5.0 SSW 20 30 11 16 1018.0 1017.2 0.4
23/02:00pm 22.8 19.4 6.1 34 8.7 ESE 13 24 7 13 1018.6 1017.8 0.0
23/01:30pm 22.8 19.3 10.9 47 6.8 S 20 32 11 17 1019.4 1018.6 0.0
23/01:00pm 24.8 23.5 9.9 39 8.4 NNW 7 13 4 7 1019.0 1018.2 0.0
23/12:30pm 25.4 23.2 9.3 36 9.0 N 11 17 6 9 1019.3 1018.5 0.0
23/12:00pm 25.9 23.8 9.7 36 9.2 NNW 11 17 6 9 1019.5 1018.7 0.0
23/11:30am 24.8 22.7 11.0 42 7.9 NNW 13 20 7 11 1020.1 1019.3 0.0
23/11:00am 24.0 22.7 12.6 49 6.7 NNW 11 17 6 9 1020.2 1019.4 0.0
23/10:30am 23.3 21.6 12.6 51 6.3 NW 13 20 7 11 1020.3 1019.5 0.0
23/10:00am 22.4 21.7 12.1 52 6.0 WNW 7 11 4 6 1020.2 1019.4 0.0
23/09:30am 20.6 21.2 11.8 57 5.0 CALM 0 6 0 3 1020.1 1019.3 0.0
23/09:00am 18.6 18.2 11.2 62 4.1 SE 4 7 2 4 1020.3 1019.5 0.0
23/08:30am 15.8 15.3 10.6 71 2.8 SSW 4 7 2 4 1020.6 1019.9 0.0
23/08:00am 13.7 13.7 11.2 85 1.4 NW 2 7 1 4 1020.6 1019.9 0.0
23/07:30am 11.5 11.9 11.3 99 0.1 CALM 0 0 0 0 1020.5 1019.7 0.0
23/07:00am 11.0 11.3 10.8 99 0.1 CALM 0 0 0 0 1020.4 1019.6 0.0
23/06:30am 10.5 10.6 10.0 97 0.3 CALM 0 0 0 0 1020.2 1019.4 0.0
23/06:00am 10.7 10.9 10.4 98 0.2 CALM 0 0 0 0 1019.9 1019.1 0.0
23/05:30am 10.6 10.7 10.0 96 0.3 CALM 0 0 0 0 1019.7 1018.9 0.0
23/05:00am 10.7 10.7 9.9 95 0.4 CALM 0 0 0 0 1019.6 1018.8 0.0
23/04:30am 11.1 11.3 10.6 97 0.3 CALM 0 0 0 0 1019.7 1018.9 0.0
23/04:00am 10.7 10.8 10.2 97 0.3 CALM 0 0 0 0 1019.6 1018.8 0.0
23/03:30am 10.5 10.6 10.0 97 0.3 CALM 0 0 0 0 1019.4 1018.6 0.0
23/03:00am 10.9 11.0 10.3 96 0.3 CALM 0 0 0 0 1019.5 1018.7 0.0
23/02:30am 10.5 10.5 9.9 96 0.3 CALM 0 0 0 0 1019.8 1019.0 0.0
23/02:00am 10.8 11.0 10.5 98 0.2 CALM 0 2 0 1 1020.0 1019.2 0.0
23/01:30am 10.4 9.6 9.6 95 0.4 WSW 4 7 2 4 1020.0 1019.2 0.0
23/01:00am 11.3 11.6 10.8 97 0.3 CALM 0 0 0 0 1020.3 1019.5 0.0
23/12:30am 11.2 11.2 9.9 92 0.7 CALM 0 0 0 0 1020.4 1019.6 0.0
23/12:00am 11.8 11.9 10.2 90 0.8 CALM 0 0 0 0 1020.4 1019.6 0.0
 
Date/Time
EDT
Tmp

°C
App
Tmp
°C
Dew
Point
°C
Rel
Hum
%
Delta-T

°C
Wind Press
QNH
hPa
Press
MSL
hPa
Rain
since
9 am
mm
Dir
 
Spd
km/h
Gust
km/h
Spd
kts
Gust
kts
22/11:30pm 12.3 12.5 10.5 89 1.0 CALM 0 0 0 0 1020.5 1019.7 0.0
22/11:00pm 13.1 13.3 10.6 85 1.3 CALM 0 0 0 0 1020.5 1019.7 0.0
22/10:30pm 14.2 13.3 10.8 80 1.8 ESE 6 7 3 4 1020.5 1019.7 0.0
22/10:00pm 14.7 15.1 11.1 79 2.0 CALM 0 0 0 0 1020.4 1019.6 0.0
22/09:30pm 15.9 15.2 11.3 74 2.5 E 6 7 3 4 1020.2 1019.4 0.0
22/09:00pm 17.5 16.8 12.0 70 3.1 E 7 9 4 5 1019.8 1019.0 0.0

Latest Capital City Observations: Canberra | Sydney | Melbourne | Brisbane | Adelaide | Perth | Hobart | Darwin

Other Formats:

Comma delimited format used in spreadsheet applications
http://www.bom.gov.au/fwo/IDN60903/IDN60903.94925.axf

JavaScript Object Notation format (JSON) in row-major order
http://www.bom.gov.au/fwo/IDN60903/IDN60903.94925.json